Pagrindinis puslapis
METAR-TAF:

METAR-TAF

Oro uostai :

Ørsta-Volda, Norvegija

platuma: 62-11N, ilguma: 006-04E, Aukštis: 7 m

Dabartinis oras

Ataskaita buvo paskelbta 46 minutes, ne 08:50 UTC
Vėjas 8 kt iš Vakarų/Pietvakarių su gūsio iki 19 kt, svyruoja nuo Pietų ir Vakarų
Temperatūra 5°C
Drėgmė 75%
Slėgis 986 hPa
Matomumas 10 km arba daugiau
Išsisklaidę debesys ne aukštis 1900 ft
Su prošvaistėmis ne aukštis 2300 ft
lietus

METAR: ENOV 180850Z 24008G19KT 170V280 9999 SHRA SCT019 BKN023 05/01 Q0986 RMK WIND 2175FT 23022KT

Laikas: 10:36 (09:36 UTC)


TAF: trūkstamas

Orai ataskaitas ir orų prognozės (METAR, TAF).

turimą stotys yra geltonos ir raudonos taškus žemėlapyje.

Perkelti pele per norėdami pamatyti stoties vardą.

Tada spustelėkite, norėdami matyti oro stebėjimo ir prognozės.

Norėdami pakeisti žemėlapį: spustelėkite ant žalios mygtukų su juodo kryžiaus žemyn,; žalią mygtuką su brūkšneliu, jei norite nutolinti; arba žalių rodyklių gretimoms žemėlapius.


METAR-TAF: